sensor_id;sensor_type;location;lat;lon;timestamp;temperature;humidity
8798;DHT22;4435;50.898;4.734;2024-01-10T00:00:13;-1.30;99.90
8798;DHT22;4435;50.898;4.734;2024-01-10T00:02:38;-1.40;99.90
8798;DHT22;4435;50.898;4.734;2024-01-10T00:05:04;-1.40;99.90
8798;DHT22;4435;50.898;4.734;2024-01-10T00:07:30;-1.30;99.90
8798;DHT22;4435;50.898;4.734;2024-01-10T00:09:55;-1.30;99.90
8798;DHT22;4435;50.898;4.734;2024-01-10T00:12:22;-1.40;99.90
8798;DHT22;4435;50.898;4.734;2024-01-10T00:14:48;-1.40;99.90
8798;DHT22;4435;50.898;4.734;2024-01-10T00:17:13;-1.40;99.90
8798;DHT22;4435;50.898;4.734;2024-01-10T00:19:39;-1.40;99.90
8798;DHT22;4435;50.898;4.734;2024-01-10T00:22:05;-1.40;99.90
8798;DHT22;4435;50.898;4.734;2024-01-10T00:24:30;-1.00;99.90
8798;DHT22;4435;50.898;4.734;2024-01-10T00:26:56;-1.30;99.90
8798;DHT22;4435;50.898;4.734;2024-01-10T00:29:21;-1.60;99.90
8798;DHT22;4435;50.898;4.734;2024-01-10T00:31:47;-1.60;99.90
8798;DHT22;4435;50.898;4.734;2024-01-10T00:34:12;-1.60;99.90
8798;DHT22;4435;50.898;4.734;2024-01-10T00:36:38;-1.60;99.90
8798;DHT22;4435;50.898;4.734;2024-01-10T00:39:04;-1.70;99.90
8798;DHT22;4435;50.898;4.734;2024-01-10T00:41:29;-1.70;99.90
8798;DHT22;4435;50.898;4.734;2024-01-10T00:43:55;-1.80;99.90
8798;DHT22;4435;50.898;4.734;2024-01-10T00:46:20;-1.80;99.90
8798;DHT22;4435;50.898;4.734;2024-01-10T00:48:46;-1.80;99.90
8798;DHT22;4435;50.898;4.734;2024-01-10T00:51:11;-1.90;99.90
8798;DHT22;4435;50.898;4.734;2024-01-10T00:53:37;-1.90;99.90
8798;DHT22;4435;50.898;4.734;2024-01-10T00:56:06;-1.70;99.90
8798;DHT22;4435;50.898;4.734;2024-01-10T00:58:32;-2.00;99.90
8798;DHT22;4435;50.898;4.734;2024-01-10T01:00:57;-1.80;99.90
8798;DHT22;4435;50.898;4.734;2024-01-10T01:03:23;-1.90;99.90
8798;DHT22;4435;50.898;4.734;2024-01-10T01:05:48;-1.90;99.90
8798;DHT22;4435;50.898;4.734;2024-01-10T01:08:14;-1.90;99.90
8798;DHT22;4435;50.898;4.734;2024-01-10T01:10:39;-1.90;99.90
8798;DHT22;4435;50.898;4.734;2024-01-10T01:13:05;-1.80;99.90
8798;DHT22;4435;50.898;4.734;2024-01-10T01:15:31;-1.90;99.90
8798;DHT22;4435;50.898;4.734;2024-01-10T01:17:56;-1.90;99.90
8798;DHT22;4435;50.898;4.734;2024-01-10T01:20:22;-1.90;99.90
8798;DHT22;4435;50.898;4.734;2024-01-10T01:22:47;-2.00;99.90
8798;DHT22;4435;50.898;4.734;2024-01-10T01:25:13;-2.00;99.90
8798;DHT22;4435;50.898;4.734;2024-01-10T01:27:39;-1.60;99.90
8798;DHT22;4435;50.898;4.734;2024-01-10T01:30:04;-2.00;99.90
8798;DHT22;4435;50.898;4.734;2024-01-10T01:32:30;-2.00;99.90
8798;DHT22;4435;50.898;4.734;2024-01-10T01:34:56;-1.90;99.90
8798;DHT22;4435;50.898;4.734;2024-01-10T01:37:22;-2.00;99.90
8798;DHT22;4435;50.898;4.734;2024-01-10T01:39:47;-1.90;99.90
8798;DHT22;4435;50.898;4.734;2024-01-10T01:42:13;-2.00;99.90
8798;DHT22;4435;50.898;4.734;2024-01-10T01:44:38;-2.00;99.90
8798;DHT22;4435;50.898;4.734;2024-01-10T01:47:04;-1.90;99.90
8798;DHT22;4435;50.898;4.734;2024-01-10T01:49:30;-2.00;99.90
8798;DHT22;4435;50.898;4.734;2024-01-10T01:51:56;-2.10;99.90
8798;DHT22;4435;50.898;4.734;2024-01-10T01:54:21;-2.10;99.90
8798;DHT22;4435;50.898;4.734;2024-01-10T01:56:48;-1.70;99.90
8798;DHT22;4435;50.898;4.734;2024-01-10T01:59:14;-2.10;99.90
8798;DHT22;4435;50.898;4.734;2024-01-10T02:01:40;-2.10;99.90
8798;DHT22;4435;50.898;4.734;2024-01-10T02:04:05;-2.10;99.90
8798;DHT22;4435;50.898;4.734;2024-01-10T02:06:31;-2.10;99.90
8798;DHT22;4435;50.898;4.734;2024-01-10T02:08:57;-2.10;99.90
8798;DHT22;4435;50.898;4.734;2024-01-10T02:11:23;-2.10;99.90
8798;DHT22;4435;50.898;4.734;2024-01-10T02:13:49;-1.80;99.90
8798;DHT22;4435;50.898;4.734;2024-01-10T02:16:15;-2.10;99.90
8798;DHT22;4435;50.898;4.734;2024-01-10T02:18:40;-2.20;99.90
8798;DHT22;4435;50.898;4.734;2024-01-10T02:21:06;-2.00;99.90
8798;DHT22;4435;50.898;4.734;2024-01-10T02:23:31;-2.10;99.90
8798;DHT22;4435;50.898;4.734;2024-01-10T02:25:57;-2.10;99.90
8798;DHT22;4435;50.898;4.734;2024-01-10T02:28:23;-1.90;99.90
8798;DHT22;4435;50.898;4.734;2024-01-10T02:30:49;-2.00;99.90
8798;DHT22;4435;50.898;4.734;2024-01-10T02:33:16;-2.00;99.90
8798;DHT22;4435;50.898;4.734;2024-01-10T02:35:41;-2.10;99.90
8798;DHT22;4435;50.898;4.734;2024-01-10T02:38:07;-2.10;99.90
8798;DHT22;4435;50.898;4.734;2024-01-10T02:40:32;-1.60;99.90
8798;DHT22;4435;50.898;4.734;2024-01-10T02:42:58;-2.10;99.90
8798;DHT22;4435;50.898;4.734;2024-01-10T02:45:23;-2.10;99.90
8798;DHT22;4435;50.898;4.734;2024-01-10T02:47:49;-1.80;99.90
8798;DHT22;4435;50.898;4.734;2024-01-10T02:50:14;-2.00;99.90
8798;DHT22;4435;50.898;4.734;2024-01-10T02:52:42;-2.10;99.90
8798;DHT22;4435;50.898;4.734;2024-01-10T02:55:07;-2.10;99.90
8798;DHT22;4435;50.898;4.734;2024-01-10T02:57:33;-2.00;99.90
8798;DHT22;4435;50.898;4.734;2024-01-10T02:59:58;-2.10;99.90
8798;DHT22;4435;50.898;4.734;2024-01-10T03:02:24;-1.90;99.90
8798;DHT22;4435;50.898;4.734;2024-01-10T03:04:50;-2.20;99.90
8798;DHT22;4435;50.898;4.734;2024-01-10T03:07:15;-2.30;99.90
8798;DHT22;4435;50.898;4.734;2024-01-10T03:09:41;-2.30;99.90
8798;DHT22;4435;50.898;4.734;2024-01-10T03:12:06;-2.40;99.90
8798;DHT22;4435;50.898;4.734;2024-01-10T03:14:32;-2.40;99.90
8798;DHT22;4435;50.898;4.734;2024-01-10T03:16:58;-2.30;99.90
8798;DHT22;4435;50.898;4.734;2024-01-10T03:19:24;-2.30;99.90
8798;DHT22;4435;50.898;4.734;2024-01-10T03:21:49;-2.30;99.90
8798;DHT22;4435;50.898;4.734;2024-01-10T03:24:15;-2.20;99.90
8798;DHT22;4435;50.898;4.734;2024-01-10T03:26:40;-2.30;99.90
8798;DHT22;4435;50.898;4.734;2024-01-10T03:29:06;-2.00;99.90
8798;DHT22;4435;50.898;4.734;2024-01-10T03:31:31;-2.40;99.90
8798;DHT22;4435;50.898;4.734;2024-01-10T03:33:57;-2.40;99.90
8798;DHT22;4435;50.898;4.734;2024-01-10T03:36:23;-2.60;99.90
8798;DHT22;4435;50.898;4.734;2024-01-10T03:38:50;-2.00;99.90
8798;DHT22;4435;50.898;4.734;2024-01-10T03:41:16;-2.10;99.90
8798;DHT22;4435;50.898;4.734;2024-01-10T03:43:42;-2.70;99.90
8798;DHT22;4435;50.898;4.734;2024-01-10T03:46:07;-2.60;99.90
8798;DHT22;4435;50.898;4.734;2024-01-10T03:48:33;-2.50;99.90
8798;DHT22;4435;50.898;4.734;2024-01-10T03:50:59;-2.60;99.90
8798;DHT22;4435;50.898;4.734;2024-01-10T03:53:24;-2.20;99.90
8798;DHT22;4435;50.898;4.734;2024-01-10T03:55:50;-2.60;99.90
8798;DHT22;4435;50.898;4.734;2024-01-10T03:58:15;-2.60;99.90
8798;DHT22;4435;50.898;4.734;2024-01-10T04:00:41;-2.30;99.90
8798;DHT22;4435;50.898;4.734;2024-01-10T04:03:06;-2.50;99.90
8798;DHT22;4435;50.898;4.734;2024-01-10T04:05:32;-2.50;99.90
8798;DHT22;4435;50.898;4.734;2024-01-10T04:07:57;-2.90;99.90
8798;DHT22;4435;50.898;4.734;2024-01-10T04:10:23;-2.90;99.90
8798;DHT22;4435;50.898;4.734;2024-01-10T04:12:49;-2.90;99.90
8798;DHT22;4435;50.898;4.734;2024-01-10T04:15:14;-2.90;99.90
8798;DHT22;4435;50.898;4.734;2024-01-10T04:17:40;-2.50;99.90
8798;DHT22;4435;50.898;4.734;2024-01-10T04:20:06;-2.90;99.90
8798;DHT22;4435;50.898;4.734;2024-01-10T04:22:32;-2.90;99.90
8798;DHT22;4435;50.898;4.734;2024-01-10T04:24:58;-3.00;99.90
8798;DHT22;4435;50.898;4.734;2024-01-10T04:27:25;-3.10;99.90
8798;DHT22;4435;50.898;4.734;2024-01-10T04:29:50;-3.00;99.90
8798;DHT22;4435;50.898;4.734;2024-01-10T04:32:16;-3.10;99.90
8798;DHT22;4435;50.898;4.734;2024-01-10T04:34:41;-3.20;99.90
8798;DHT22;4435;50.898;4.734;2024-01-10T04:37:07;-2.80;99.90
8798;DHT22;4435;50.898;4.734;2024-01-10T04:39:33;-3.20;99.90
8798;DHT22;4435;50.898;4.734;2024-01-10T04:41:59;-3.20;99.90
8798;DHT22;4435;50.898;4.734;2024-01-10T04:44:25;-3.10;99.90
8798;DHT22;4435;50.898;4.734;2024-01-10T04:46:50;-3.20;99.90
8798;DHT22;4435;50.898;4.734;2024-01-10T04:49:16;-3.10;99.90
8798;DHT22;4435;50.898;4.734;2024-01-10T04:51:41;-3.10;99.90
8798;DHT22;4435;50.898;4.734;2024-01-10T04:54:08;-3.20;99.90
8798;DHT22;4435;50.898;4.734;2024-01-10T04:56:34;-2.90;99.90
8798;DHT22;4435;50.898;4.734;2024-01-10T04:59:01;-3.10;99.90
8798;DHT22;4435;50.898;4.734;2024-01-10T05:01:27;-3.10;99.90
8798;DHT22;4435;50.898;4.734;2024-01-10T05:03:53;-3.00;99.90
8798;DHT22;4435;50.898;4.734;2024-01-10T05:06:18;-3.00;99.90
8798;DHT22;4435;50.898;4.734;2024-01-10T05:08:44;-3.00;99.90
8798;DHT22;4435;50.898;4.734;2024-01-10T05:11:09;-2.90;99.90
8798;DHT22;4435;50.898;4.734;2024-01-10T05:13:35;-3.00;99.90
8798;DHT22;4435;50.898;4.734;2024-01-10T05:16:01;-2.90;99.90
8798;DHT22;4435;50.898;4.734;2024-01-10T05:18:26;-2.90;99.90
8798;DHT22;4435;50.898;4.734;2024-01-10T05:20:52;-2.90;99.90
8798;DHT22;4435;50.898;4.734;2024-01-10T05:23:17;-2.90;99.90
8798;DHT22;4435;50.898;4.734;2024-01-10T05:25:43;-2.90;99.90
8798;DHT22;4435;50.898;4.734;2024-01-10T05:28:08;-2.90;99.90
8798;DHT22;4435;50.898;4.734;2024-01-10T05:30:34;-3.00;99.90
8798;DHT22;4435;50.898;4.734;2024-01-10T05:33:00;-2.90;99.90
8798;DHT22;4435;50.898;4.734;2024-01-10T05:35:26;-2.50;99.90
8798;DHT22;4435;50.898;4.734;2024-01-10T05:37:52;-3.00;99.90
8798;DHT22;4435;50.898;4.734;2024-01-10T05:40:17;-2.90;99.90
8798;DHT22;4435;50.898;4.734;2024-01-10T05:42:44;-3.00;99.90
8798;DHT22;4435;50.898;4.734;2024-01-10T05:45:09;-3.10;99.90
8798;DHT22;4435;50.898;4.734;2024-01-10T05:47:35;-3.20;99.90
8798;DHT22;4435;50.898;4.734;2024-01-10T05:50:01;-2.90;99.90
8798;DHT22;4435;50.898;4.734;2024-01-10T05:52:26;-3.30;99.90
8798;DHT22;4435;50.898;4.734;2024-01-10T05:54:52;-3.30;99.90
8798;DHT22;4435;50.898;4.734;2024-01-10T05:57:18;-3.20;99.90
8798;DHT22;4435;50.898;4.734;2024-01-10T05:59:44;-3.10;99.90
8798;DHT22;4435;50.898;4.734;2024-01-10T06:02:09;-3.10;99.90
8798;DHT22;4435;50.898;4.734;2024-01-10T06:04:35;-3.20;99.90
8798;DHT22;4435;50.898;4.734;2024-01-10T06:07:01;-3.20;99.90
8798;DHT22;4435;50.898;4.734;2024-01-10T06:09:26;-3.20;99.90
8798;DHT22;4435;50.898;4.734;2024-01-10T06:11:52;-2.60;99.90
8798;DHT22;4435;50.898;4.734;2024-01-10T06:14:18;-3.20;99.90
8798;DHT22;4435;50.898;4.734;2024-01-10T06:16:44;-3.20;99.90
8798;DHT22;4435;50.898;4.734;2024-01-10T06:19:13;-3.20;99.90
8798;DHT22;4435;50.898;4.734;2024-01-10T06:21:38;-3.20;99.90
8798;DHT22;4435;50.898;4.734;2024-01-10T06:24:04;-3.20;99.90
8798;DHT22;4435;50.898;4.734;2024-01-10T06:26:30;-3.10;99.90
8798;DHT22;4435;50.898;4.734;2024-01-10T06:28:55;-3.20;99.90
8798;DHT22;4435;50.898;4.734;2024-01-10T06:31:21;-3.20;99.90
8798;DHT22;4435;50.898;4.734;2024-01-10T06:33:47;-3.20;99.90
8798;DHT22;4435;50.898;4.734;2024-01-10T06:36:12;-3.30;99.90
8798;DHT22;4435;50.898;4.734;2024-01-10T06:38:38;-3.20;99.90
8798;DHT22;4435;50.898;4.734;2024-01-10T06:41:10;-3.20;99.90
8798;DHT22;4435;50.898;4.734;2024-01-10T06:43:39;-3.30;99.90
8798;DHT22;4435;50.898;4.734;2024-01-10T06:46:04;-3.30;99.90
8798;DHT22;4435;50.898;4.734;2024-01-10T06:48:30;-3.30;99.90
8798;DHT22;4435;50.898;4.734;2024-01-10T06:50:57;-3.20;99.90
8798;DHT22;4435;50.898;4.734;2024-01-10T06:53:22;-2.90;99.90
8798;DHT22;4435;50.898;4.734;2024-01-10T06:55:48;-3.10;99.90
8798;DHT22;4435;50.898;4.734;2024-01-10T06:58:14;-3.00;99.90
8798;DHT22;4435;50.898;4.734;2024-01-10T07:00:39;-3.10;99.90
8798;DHT22;4435;50.898;4.734;2024-01-10T07:03:05;-2.50;99.90
8798;DHT22;4435;50.898;4.734;2024-01-10T07:05:31;-3.00;99.90
8798;DHT22;4435;50.898;4.734;2024-01-10T07:07:57;-3.10;99.90
8798;DHT22;4435;50.898;4.734;2024-01-10T07:10:23;-3.10;99.90
8798;DHT22;4435;50.898;4.734;2024-01-10T07:12:53;-3.20;99.90
8798;DHT22;4435;50.898;4.734;2024-01-10T07:15:19;-3.20;99.90
8798;DHT22;4435;50.898;4.734;2024-01-10T07:17:44;-3.20;99.90
8798;DHT22;4435;50.898;4.734;2024-01-10T07:20:10;-3.10;99.90
8798;DHT22;4435;50.898;4.734;2024-01-10T07:22:37;-3.10;99.90
8798;DHT22;4435;50.898;4.734;2024-01-10T07:25:15;-3.00;99.90
8798;DHT22;4435;50.898;4.734;2024-01-10T07:27:41;-3.10;99.90
8798;DHT22;4435;50.898;4.734;2024-01-10T07:30:07;-3.10;99.90
8798;DHT22;4435;50.898;4.734;2024-01-10T07:32:42;-3.00;99.90
8798;DHT22;4435;50.898;4.734;2024-01-10T07:35:08;-3.10;99.90
8798;DHT22;4435;50.898;4.734;2024-01-10T07:37:37;-3.10;99.90
8798;DHT22;4435;50.898;4.734;2024-01-10T07:40:03;-3.00;99.90
8798;DHT22;4435;50.898;4.734;2024-01-10T07:42:31;-3.00;99.90
8798;DHT22;4435;50.898;4.734;2024-01-10T07:44:56;-3.00;99.90
8798;DHT22;4435;50.898;4.734;2024-01-10T07:47:22;-3.00;99.90
8798;DHT22;4435;50.898;4.734;2024-01-10T07:49:48;-3.10;99.90
8798;DHT22;4435;50.898;4.734;2024-01-10T07:52:14;-3.00;99.90
8798;DHT22;4435;50.898;4.734;2024-01-10T07:54:41;-2.80;99.90
8798;DHT22;4435;50.898;4.734;2024-01-10T07:57:07;-2.90;99.90
8798;DHT22;4435;50.898;4.734;2024-01-10T07:59:32;-3.10;99.90
8798;DHT22;4435;50.898;4.734;2024-01-10T08:01:59;-2.50;99.90
8798;DHT22;4435;50.898;4.734;2024-01-10T08:04:25;-2.90;99.90
8798;DHT22;4435;50.898;4.734;2024-01-10T08:06:51;-3.10;99.90
8798;DHT22;4435;50.898;4.734;2024-01-10T08:09:17;-3.10;99.90
8798;DHT22;4435;50.898;4.734;2024-01-10T08:11:44;-3.10;99.90
8798;DHT22;4435;50.898;4.734;2024-01-10T08:14:10;-3.00;99.90
8798;DHT22;4435;50.898;4.734;2024-01-10T08:16:36;-2.70;99.90
8798;DHT22;4435;50.898;4.734;2024-01-10T08:19:01;-2.90;99.90
8798;DHT22;4435;50.898;4.734;2024-01-10T08:21:27;-3.00;99.90
8798;DHT22;4435;50.898;4.734;2024-01-10T08:23:52;-3.00;99.90
8798;DHT22;4435;50.898;4.734;2024-01-10T08:26:18;-3.00;99.90
8798;DHT22;4435;50.898;4.734;2024-01-10T08:28:44;-3.00;99.90
8798;DHT22;4435;50.898;4.734;2024-01-10T08:31:09;-2.90;99.90
8798;DHT22;4435;50.898;4.734;2024-01-10T08:33:35;-2.80;99.90
8798;DHT22;4435;50.898;4.734;2024-01-10T08:36:00;-2.70;99.90
8798;DHT22;4435;50.898;4.734;2024-01-10T08:38:26;-2.70;99.90
8798;DHT22;4435;50.898;4.734;2024-01-10T08:40:51;-2.70;99.90
8798;DHT22;4435;50.898;4.734;2024-01-10T08:43:18;-2.70;99.90
8798;DHT22;4435;50.898;4.734;2024-01-10T08:45:44;-2.60;99.90
8798;DHT22;4435;50.898;4.734;2024-01-10T08:48:09;-2.30;99.90
8798;DHT22;4435;50.898;4.734;2024-01-10T08:50:37;-2.50;99.90
8798;DHT22;4435;50.898;4.734;2024-01-10T08:53:03;-2.60;99.90
8798;DHT22;4435;50.898;4.734;2024-01-10T08:55:31;-2.60;99.90
8798;DHT22;4435;50.898;4.734;2024-01-10T08:57:56;-2.60;99.90
8798;DHT22;4435;50.898;4.734;2024-01-10T09:00:22;-2.60;99.90
8798;DHT22;4435;50.898;4.734;2024-01-10T09:02:49;-2.60;99.90
8798;DHT22;4435;50.898;4.734;2024-01-10T09:05:15;-2.50;99.90
8798;DHT22;4435;50.898;4.734;2024-01-10T09:07:41;-2.50;99.90
8798;DHT22;4435;50.898;4.734;2024-01-10T09:10:07;-2.20;99.90
8798;DHT22;4435;50.898;4.734;2024-01-10T09:12:33;-2.50;99.90
8798;DHT22;4435;50.898;4.734;2024-01-10T09:14:59;-2.40;99.90
8798;DHT22;4435;50.898;4.734;2024-01-10T09:17:26;-2.10;99.90
8798;DHT22;4435;50.898;4.734;2024-01-10T09:19:53;-2.40;99.90
8798;DHT22;4435;50.898;4.734;2024-01-10T09:22:19;-2.10;99.90
8798;DHT22;4435;50.898;4.734;2024-01-10T09:24:44;-2.40;99.90
8798;DHT22;4435;50.898;4.734;2024-01-10T09:27:10;-2.40;99.90
8798;DHT22;4435;50.898;4.734;2024-01-10T09:29:36;-2.30;99.90
8798;DHT22;4435;50.898;4.734;2024-01-10T09:32:01;-1.90;99.90
8798;DHT22;4435;50.898;4.734;2024-01-10T09:34:27;-2.30;99.90
8798;DHT22;4435;50.898;4.734;2024-01-10T09:36:52;-2.30;99.90
8798;DHT22;4435;50.898;4.734;2024-01-10T09:39:18;-2.20;99.90
8798;DHT22;4435;50.898;4.734;2024-01-10T09:41:47;-1.80;99.90
8798;DHT22;4435;50.898;4.734;2024-01-10T09:44:19;-2.20;99.90
8798;DHT22;4435;50.898;4.734;2024-01-10T09:46:48;-2.10;99.90
8798;DHT22;4435;50.898;4.734;2024-01-10T09:49:14;-1.70;99.90
8798;DHT22;4435;50.898;4.734;2024-01-10T09:51:40;-1.70;99.90
8798;DHT22;4435;50.898;4.734;2024-01-10T09:54:06;-1.50;99.90
8798;DHT22;4435;50.898;4.734;2024-01-10T09:56:32;-1.90;99.90
8798;DHT22;4435;50.898;4.734;2024-01-10T09:59:00;-1.90;99.90
8798;DHT22;4435;50.898;4.734;2024-01-10T10:01:26;-1.90;99.90
8798;DHT22;4435;50.898;4.734;2024-01-10T10:03:52;-1.80;99.90
8798;DHT22;4435;50.898;4.734;2024-01-10T10:06:18;-1.80;99.90
8798;DHT22;4435;50.898;4.734;2024-01-10T10:08:44;-1.80;99.90
8798;DHT22;4435;50.898;4.734;2024-01-10T10:11:13;-1.70;99.90
8798;DHT22;4435;50.898;4.734;2024-01-10T10:13:41;-1.70;99.90
8798;DHT22;4435;50.898;4.734;2024-01-10T10:16:07;-1.60;99.90
8798;DHT22;4435;50.898;4.734;2024-01-10T10:18:34;-1.60;99.90
8798;DHT22;4435;50.898;4.734;2024-01-10T10:21:13;-1.60;99.90
8798;DHT22;4435;50.898;4.734;2024-01-10T10:23:39;-1.60;99.90
8798;DHT22;4435;50.898;4.734;2024-01-10T10:26:12;-1.20;99.90
8798;DHT22;4435;50.898;4.734;2024-01-10T10:28:44;-1.50;99.90
8798;DHT22;4435;50.898;4.734;2024-01-10T10:31:09;-1.40;99.90
8798;DHT22;4435;50.898;4.734;2024-01-10T10:33:36;-1.30;99.90
8798;DHT22;4435;50.898;4.734;2024-01-10T10:36:02;-1.30;99.90
8798;DHT22;4435;50.898;4.734;2024-01-10T10:38:28;-1.30;99.90
8798;DHT22;4435;50.898;4.734;2024-01-10T10:40:54;-1.20;99.90
8798;DHT22;4435;50.898;4.734;2024-01-10T10:43:21;-1.20;99.90
8798;DHT22;4435;50.898;4.734;2024-01-10T10:45:48;-1.20;99.90
8798;DHT22;4435;50.898;4.734;2024-01-10T10:48:17;-1.10;99.90
8798;DHT22;4435;50.898;4.734;2024-01-10T10:50:45;-0.80;99.90
8798;DHT22;4435;50.898;4.734;2024-01-10T10:53:13;-1.00;99.90
8798;DHT22;4435;50.898;4.734;2024-01-10T10:55:39;-0.90;99.90
8798;DHT22;4435;50.898;4.734;2024-01-10T10:58:05;-0.90;99.90
8798;DHT22;4435;50.898;4.734;2024-01-10T11:00:31;-0.90;99.90
8798;DHT22;4435;50.898;4.734;2024-01-10T11:02:57;-0.80;99.90
8798;DHT22;4435;50.898;4.734;2024-01-10T11:05:23;-0.80;99.90
8798;DHT22;4435;50.898;4.734;2024-01-10T11:07:49;-0.50;99.90
8798;DHT22;4435;50.898;4.734;2024-01-10T11:15:39;-0.70;99.90
8798;DHT22;4435;50.898;4.734;2024-01-10T11:26:19;-0.50;99.90
8798;DHT22;4435;50.898;4.734;2024-01-10T11:28:44;-0.20;99.90
8798;DHT22;4435;50.898;4.734;2024-01-10T11:31:10;-0.20;99.90
8798;DHT22;4435;50.898;4.734;2024-01-10T11:33:36;-0.40;99.90
8798;DHT22;4435;50.898;4.734;2024-01-10T11:36:12;-0.30;99.90
8798;DHT22;4435;50.898;4.734;2024-01-10T11:39:21;-0.40;99.90
8798;DHT22;4435;50.898;4.734;2024-01-10T11:41:29;-0.40;99.90
8798;DHT22;4435;50.898;4.734;2024-01-10T11:46:46;-0.30;99.90
8798;DHT22;4435;50.898;4.734;2024-01-10T11:49:15;-0.20;99.90
8798;DHT22;4435;50.898;4.734;2024-01-10T11:51:44;-0.20;99.90
8798;DHT22;4435;50.898;4.734;2024-01-10T11:54:10;-0.10;99.90
8798;DHT22;4435;50.898;4.734;2024-01-10T11:56:39;-0.10;99.90
8798;DHT22;4435;50.898;4.734;2024-01-10T11:59:10;0.00;99.90
8798;DHT22;4435;50.898;4.734;2024-01-10T12:01:36;0.00;99.90
8798;DHT22;4435;50.898;4.734;2024-01-10T12:04:02;0.30;99.90
8798;DHT22;4435;50.898;4.734;2024-01-10T12:06:29;0.40;99.90
8798;DHT22;4435;50.898;4.734;2024-01-10T12:08:55;0.10;99.90
8798;DHT22;4435;50.898;4.734;2024-01-10T12:11:21;-0.10;99.90
8798;DHT22;4435;50.898;4.734;2024-01-10T12:13:47;0.20;99.90
8798;DHT22;4435;50.898;4.734;2024-01-10T12:16:13;0.10;99.90
8798;DHT22;4435;50.898;4.734;2024-01-10T12:18:43;0.30;99.90
8798;DHT22;4435;50.898;4.734;2024-01-10T12:21:08;0.10;99.90
8798;DHT22;4435;50.898;4.734;2024-01-10T12:23:34;0.20;99.90
8798;DHT22;4435;50.898;4.734;2024-01-10T12:26:03;0.00;99.90
8798;DHT22;4435;50.898;4.734;2024-01-10T12:28:36;0.10;99.90
8798;DHT22;4435;50.898;4.734;2024-01-10T12:31:03;0.20;99.90
8798;DHT22;4435;50.898;4.734;2024-01-10T12:33:28;0.40;99.90
8798;DHT22;4435;50.898;4.734;2024-01-10T12:36:04;0.40;99.90
8798;DHT22;4435;50.898;4.734;2024-01-10T12:38:30;0.40;99.90
8798;DHT22;4435;50.898;4.734;2024-01-10T12:40:57;0.50;99.90
8798;DHT22;4435;50.898;4.734;2024-01-10T12:43:22;0.50;99.90
8798;DHT22;4435;50.898;4.734;2024-01-10T12:45:51;0.30;99.90
8798;DHT22;4435;50.898;4.734;2024-01-10T12:48:27;0.50;99.90
8798;DHT22;4435;50.898;4.734;2024-01-10T12:50:52;0.50;99.90
8798;DHT22;4435;50.898;4.734;2024-01-10T12:53:18;1.00;99.90
8798;DHT22;4435;50.898;4.734;2024-01-10T12:55:43;0.90;99.90
8798;DHT22;4435;50.898;4.734;2024-01-10T12:58:09;0.60;99.90
8798;DHT22;4435;50.898;4.734;2024-01-10T13:00:35;1.10;99.90
8798;DHT22;4435;50.898;4.734;2024-01-10T13:03:01;0.80;99.90
8798;DHT22;4435;50.898;4.734;2024-01-10T13:05:28;1.00;99.90
8798;DHT22;4435;50.898;4.734;2024-01-10T13:07:54;1.10;99.90
8798;DHT22;4435;50.898;4.734;2024-01-10T13:10:20;1.20;99.90
8798;DHT22;4435;50.898;4.734;2024-01-10T13:12:46;1.20;99.90
8798;DHT22;4435;50.898;4.734;2024-01-10T13:15:12;1.40;99.90
8798;DHT22;4435;50.898;4.734;2024-01-10T13:17:38;1.30;99.90
8798;DHT22;4435;50.898;4.734;2024-01-10T13:20:04;1.70;99.90
8798;DHT22;4435;50.898;4.734;2024-01-10T13:22:30;1.50;99.90
8798;DHT22;4435;50.898;4.734;2024-01-10T13:24:56;2.10;99.90
8798;DHT22;4435;50.898;4.734;2024-01-10T13:27:21;1.70;99.90
8798;DHT22;4435;50.898;4.734;2024-01-10T13:29:47;1.80;99.90
8798;DHT22;4435;50.898;4.734;2024-01-10T13:32:13;2.10;99.90
8798;DHT22;4435;50.898;4.734;2024-01-10T13:34:38;2.00;99.90
8798;DHT22;4435;50.898;4.734;2024-01-10T13:37:04;2.10;99.90
8798;DHT22;4435;50.898;4.734;2024-01-10T13:39:30;2.20;99.90
8798;DHT22;4435;50.898;4.734;2024-01-10T13:41:55;2.60;99.90
8798;DHT22;4435;50.898;4.734;2024-01-10T13:44:21;2.60;99.90
8798;DHT22;4435;50.898;4.734;2024-01-10T13:46:46;3.30;99.90
8798;DHT22;4435;50.898;4.734;2024-01-10T13:49:15;3.40;99.90
8798;DHT22;4435;50.898;4.734;2024-01-10T13:51:40;4.00;99.90
8798;DHT22;4435;50.898;4.734;2024-01-10T13:54:06;4.70;99.90
8798;DHT22;4435;50.898;4.734;2024-01-10T13:56:31;5.50;99.90
8798;DHT22;4435;50.898;4.734;2024-01-10T13:58:57;5.90;99.90
8798;DHT22;4435;50.898;4.734;2024-01-10T14:01:23;6.20;99.90
8798;DHT22;4435;50.898;4.734;2024-01-10T14:03:48;6.30;99.90
8798;DHT22;4435;50.898;4.734;2024-01-10T14:06:14;6.10;99.90
8798;DHT22;4435;50.898;4.734;2024-01-10T14:08:40;5.80;99.90
8798;DHT22;4435;50.898;4.734;2024-01-10T14:11:06;5.40;99.90
8798;DHT22;4435;50.898;4.734;2024-01-10T14:13:32;5.20;99.90
8798;DHT22;4435;50.898;4.734;2024-01-10T14:15:58;5.00;99.90
8798;DHT22;4435;50.898;4.734;2024-01-10T14:18:23;4.80;99.90
8798;DHT22;4435;50.898;4.734;2024-01-10T14:20:49;4.70;99.90
8798;DHT22;4435;50.898;4.734;2024-01-10T14:23:14;5.00;99.90
8798;DHT22;4435;50.898;4.734;2024-01-10T14:25:42;5.10;99.90
8798;DHT22;4435;50.898;4.734;2024-01-10T14:28:08;5.40;99.90
8798;DHT22;4435;50.898;4.734;2024-01-10T14:30:33;5.80;99.90
8798;DHT22;4435;50.898;4.734;2024-01-10T14:32:59;6.40;99.90
8798;DHT22;4435;50.898;4.734;2024-01-10T14:35:25;7.00;99.90
8798;DHT22;4435;50.898;4.734;2024-01-10T14:37:50;7.70;99.90
8798;DHT22;4435;50.898;4.734;2024-01-10T14:40:16;8.50;99.90
8798;DHT22;4435;50.898;4.734;2024-01-10T14:42:41;9.30;99.90
8798;DHT22;4435;50.898;4.734;2024-01-10T14:45:07;9.70;99.90
8798;DHT22;4435;50.898;4.734;2024-01-10T14:47:33;10.30;99.90
8798;DHT22;4435;50.898;4.734;2024-01-10T14:50:00;10.70;99.90
8798;DHT22;4435;50.898;4.734;2024-01-10T14:52:26;11.10;99.90
8798;DHT22;4435;50.898;4.734;2024-01-10T14:54:52;10.80;99.90
8798;DHT22;4435;50.898;4.734;2024-01-10T14:57:18;10.30;98.00
8798;DHT22;4435;50.898;4.734;2024-01-10T14:59:43;9.40;99.50
8798;DHT22;4435;50.898;4.734;2024-01-10T15:02:09;8.60;99.90
8798;DHT22;4435;50.898;4.734;2024-01-10T15:04:38;7.80;99.90
8798;DHT22;4435;50.898;4.734;2024-01-10T15:07:04;7.00;99.90
8798;DHT22;4435;50.898;4.734;2024-01-10T15:09:30;6.30;99.90
8798;DHT22;4435;50.898;4.734;2024-01-10T15:11:55;6.00;99.90
8798;DHT22;4435;50.898;4.734;2024-01-10T15:14:21;5.20;99.90
8798;DHT22;4435;50.898;4.734;2024-01-10T15:16:47;4.80;99.90
8798;DHT22;4435;50.898;4.734;2024-01-10T15:19:13;4.70;99.90
8798;DHT22;4435;50.898;4.734;2024-01-10T15:21:39;4.00;99.90
8798;DHT22;4435;50.898;4.734;2024-01-10T15:24:08;3.70;99.90
8798;DHT22;4435;50.898;4.734;2024-01-10T15:26:33;3.50;99.90
8798;DHT22;4435;50.898;4.734;2024-01-10T15:28:59;3.20;99.90
8798;DHT22;4435;50.898;4.734;2024-01-10T15:31:25;3.20;99.90
8798;DHT22;4435;50.898;4.734;2024-01-10T15:33:51;2.90;99.90
8798;DHT22;4435;50.898;4.734;2024-01-10T15:36:16;3.00;99.90
8798;DHT22;4435;50.898;4.734;2024-01-10T15:38:42;2.60;99.90
8798;DHT22;4435;50.898;4.734;2024-01-10T15:41:08;2.50;99.90
8798;DHT22;4435;50.898;4.734;2024-01-10T15:43:34;2.40;99.90
8798;DHT22;4435;50.898;4.734;2024-01-10T15:46:00;2.30;99.90
8798;DHT22;4435;50.898;4.734;2024-01-10T15:48:26;2.20;99.90
8798;DHT22;4435;50.898;4.734;2024-01-10T15:50:53;2.10;99.90
8798;DHT22;4435;50.898;4.734;2024-01-10T15:53:18;2.20;99.90
8798;DHT22;4435;50.898;4.734;2024-01-10T15:55:44;2.30;99.90
8798;DHT22;4435;50.898;4.734;2024-01-10T15:58:10;1.90;99.90
8798;DHT22;4435;50.898;4.734;2024-01-10T16:00:35;2.00;99.90
8798;DHT22;4435;50.898;4.734;2024-01-10T16:03:01;1.70;99.90
8798;DHT22;4435;50.898;4.734;2024-01-10T16:05:29;1.70;99.90
8798;DHT22;4435;50.898;4.734;2024-01-10T16:07:54;1.60;99.90
8798;DHT22;4435;50.898;4.734;2024-01-10T16:10:20;1.80;99.90
8798;DHT22;4435;50.898;4.734;2024-01-10T16:12:46;1.50;99.90